Time;durP1;ratioP1;P1;durP2;ratioP2;P2;SDS_P1;SDS_P2;PMS_P1;PMS_P2;Temp;Humidity;BMP_temperature;BMP_pressure;BME280_temperature;BME280_humidity;BME280_pressure;Samples;Min_cycle;Max_cycle;Signal;HPM_P1;HPM_P2
2021/05/07 00:00:34;;;;;;;1.50;1.40;;;;;18.30;99624.00;;;;2078081;28;20988;-67
2021/05/07 00:01:34;;;;;;;1.30;1.20;;;;;18.30;99619.00;;;;2078586;28;20216;-66
2021/05/07 00:02:34;;;;;;;1.30;1.20;;;;;18.30;99614.00;;;;2079041;28;20600;-66
2021/05/07 00:03:35;;;;;;;1.40;1.30;;;;;18.30;99611.00;;;;2079624;28;20268;-65
2021/05/07 00:04:35;;;;;;;1.20;1.10;;;;;18.30;99607.00;;;;2079772;28;20213;-66
2021/05/07 00:05:36;;;;;;;1.40;1.20;;;;;18.30;99611.00;;;;2078813;28;20292;-66
2021/05/07 00:06:36;;;;;;;1.50;1.40;;;;;18.30;99610.00;;;;2079049;28;20210;-66
2021/05/07 00:07:36;;;;;;;1.27;1.00;;;;;18.30;99613.00;;;;2079521;28;20206;-67
2021/05/07 00:08:38;;;;;;;1.23;1.13;;;;;18.30;99614.00;;;;2079728;28;20272;-66
2021/05/07 00:09:39;;;;;;;1.27;1.13;;;;;18.30;99618.00;;;;2079278;28;20236;-66
2021/05/07 00:10:39;;;;;;;1.50;1.40;;;;;18.30;99610.00;;;;2079331;28;20225;-66
2021/05/07 00:11:39;;;;;;;1.50;1.10;;;;;18.30;99613.00;;;;2079709;28;20237;-66
2021/05/07 00:12:43;;;;;;;1.60;1.50;;;;;18.30;99612.00;;;;2079690;28;20297;-66
2021/05/07 00:13:44;;;;;;;1.80;1.35;;;;;18.30;99614.00;;;;2079657;28;20767;-66
2021/05/07 00:14:44;;;;;;;1.63;1.23;;;;;18.30;99616.00;;;;2075908;28;20214;-66
2021/05/07 00:15:45;;;;;;;1.40;1.20;;;;;18.30;99619.00;;;;2079692;28;20229;-66
2021/05/07 00:16:45;;;;;;;1.43;1.27;;;;;18.30;99609.00;;;;2079744;28;20692;-67
2021/05/07 00:17:45;;;;;;;1.50;1.40;;;;;18.20;99614.00;;;;2079627;28;20217;-66
2021/05/07 00:18:46;;;;;;;1.60;1.50;;;;;18.30;99620.00;;;;2079358;28;20229;-66
2021/05/07 00:19:46;;;;;;;1.37;1.20;;;;;18.30;99626.00;;;;2079318;28;20218;-67
2021/05/07 00:20:46;;;;;;;1.63;1.40;;;;;18.30;99623.00;;;;2079746;28;20252;-66
2021/05/07 00:21:47;;;;;;;1.43;1.33;;;;;18.30;99615.00;;;;2079437;28;20707;-67
2021/05/07 00:22:48;;;;;;;1.70;1.47;;;;;18.30;99616.00;;;;2079598;28;20218;-67
2021/05/07 00:23:48;;;;;;;1.27;1.17;;;;;18.30;99623.00;;;;2078923;28;20268;-67
2021/05/07 00:24:48;;;;;;;1.60;1.50;;;;;18.30;99627.00;;;;2078990;28;20642;-65
2021/05/07 00:25:51;;;;;;;1.40;1.30;;;;;18.30;99624.00;;;;2078743;28;20292;-67
2021/05/07 00:26:51;;;;;;;1.40;1.30;;;;;18.20;99621.00;;;;2078716;28;20252;-67
2021/05/07 00:28:18;;;;;;;1.50;1.40;;;;;18.20;99623.00;;;;2079591;28;20222;-68
2021/05/07 00:29:18;;;;;;;1.55;1.40;;;;;18.20;99626.00;;;;2074158;28;20761;-66
2021/05/07 00:30:19;;;;;;;1.57;1.47;;;;;18.20;99614.00;;;;2079539;28;20264;-66
2021/05/07 00:31:19;;;;;;;1.50;1.40;;;;;18.20;99622.00;;;;2079500;28;20240;-66
2021/05/07 00:32:19;;;;;;;1.37;1.27;;;;;18.20;99629.00;;;;2079286;28;20221;-66
2021/05/07 00:33:20;;;;;;;1.50;1.40;;;;;18.20;99630.00;;;;2079496;28;20685;-67
2021/05/07 00:34:20;;;;;;;1.50;1.40;;;;;18.30;99624.00;;;;2079417;28;20217;-66
2021/05/07 00:35:21;;;;;;;1.70;1.60;;;;;18.20;99633.00;;;;2079584;28;20232;-66
2021/05/07 00:36:21;;;;;;;1.37;1.27;;;;;18.20;99626.00;;;;2079596;28;20290;-66
2021/05/07 00:37:21;;;;;;;1.30;1.20;;;;;18.20;99625.00;;;;2079665;28;20230;-66
2021/05/07 00:38:22;;;;;;;1.30;1.20;;;;;18.30;99624.00;;;;2078878;28;20249;-66
2021/05/07 00:39:22;;;;;;;1.40;1.30;;;;;18.20;99633.00;;;;2079398;28;20279;-66
2021/05/07 00:40:22;;;;;;;1.37;1.27;;;;;18.20;99628.00;;;;2079546;28;20246;-66
2021/05/07 00:41:23;;;;;;;1.60;1.50;;;;;18.20;99633.00;;;;2079390;28;20214;-66
2021/05/07 00:42:23;;;;;;;1.50;1.40;;;;;18.20;99628.00;;;;2079703;28;20217;-66
2021/05/07 00:43:24;;;;;;;1.30;1.20;;;;;18.20;99626.00;;;;2079466;28;20256;-65
2021/05/07 00:44:25;;;;;;;1.80;1.63;;;;;18.20;99631.00;;;;2078830;28;20210;-66
2021/05/07 00:45:25;;;;;;;1.50;1.40;;;;;18.20;99630.00;;;;2079520;28;20222;-67
2021/05/07 00:46:25;;;;;;;1.70;1.60;;;;;18.20;99632.00;;;;2079548;28;20747;-66
2021/05/07 00:47:26;;;;;;;1.57;1.47;;;;;18.20;99632.00;;;;2079596;28;20210;-66
2021/05/07 00:48:26;;;;;;;1.43;1.33;;;;;18.20;99629.00;;;;2070680;28;20230;-66
2021/05/07 00:49:27;;;;;;;1.63;1.53;;;;;18.20;99630.00;;;;2070389;28;20219;-66
2021/05/07 00:50:28;;;;;;;1.60;1.50;;;;;18.20;99635.00;;;;2079458;28;20297;-66
2021/05/07 00:51:28;;;;;;;1.63;1.52;;;;;18.20;99626.00;;;;2078960;28;20210;-67
2021/05/07 00:52:33;;;;;;;1.33;1.20;;;;;18.20;99641.00;;;;2062737;28;20210;-66
2021/05/07 00:53:33;;;;;;;1.20;1.10;;;;;18.20;99647.00;;;;2071269;28;20284;-66
2021/05/07 00:54:34;;;;;;;1.43;1.33;;;;;18.20;99635.00;;;;2079623;28;20423;-66
2021/05/07 00:55:35;;;;;;;1.67;1.50;;;;;18.20;99641.00;;;;2078386;28;20221;-66
2021/05/07 00:56:36;;;;;;;1.55;1.45;;;;;18.20;99641.00;;;;2078731;28;20581;-66
2021/05/07 00:57:36;;;;;;;1.70;1.60;;;;;18.20;99646.00;;;;2079549;28;20216;-67
2021/05/07 00:58:37;;;;;;;1.77;1.67;;;;;18.20;99635.00;;;;2079618;28;20222;-66
2021/05/07 00:59:37;;;;;;;1.63;1.53;;;;;18.20;99629.00;;;;2080736;28;20214;-66
2021/05/07 01:00:38;;;;;;;1.87;1.77;;;;;18.20;99637.00;;;;2080183;28;20276;-66
2021/05/07 01:01:38;;;;;;;1.70;1.60;;;;;18.20;99641.00;;;;2076808;28;20758;-66
2021/05/07 01:02:38;;;;;;;1.50;1.40;;;;;18.20;99644.00;;;;2080961;28;20273;-66
2021/05/07 01:03:38;;;;;;;1.93;1.77;;;;;18.20;99647.00;;;;2080797;28;20221;-66
2021/05/07 01:04:39;;;;;;;1.50;1.40;;;;;18.20;99633.00;;;;2080294;28;20213;-66
2021/05/07 01:05:39;;;;;;;1.50;1.40;;;;;18.20;99636.00;;;;2080036;28;20218;-66
2021/05/07 01:06:40;;;;;;;1.50;1.40;;;;;18.20;99640.00;;;;2080380;28;20210;-66
2021/05/07 01:07:40;;;;;;;2.00;1.83;;;;;18.20;99642.00;;;;2080743;28;20321;-66
2021/05/07 01:08:40;;;;;;;1.80;1.70;;;;;18.20;99641.00;;;;2080874;28;20244;-66
2021/05/07 01:09:41;;;;;;;1.60;1.50;;;;;18.20;99641.00;;;;2080609;28;20233;-66
2021/05/07 01:10:41;;;;;;;1.60;1.50;;;;;18.20;99641.00;;;;2080713;28;20218;-66
2021/05/07 01:11:42;;;;;;;1.80;1.70;;;;;18.20;99640.00;;;;2079662;28;20316;-66
2021/05/07 01:12:43;;;;;;;1.40;1.30;;;;;18.20;99643.00;;;;2080251;28;20683;-66
2021/05/07 01:13:43;;;;;;;1.53;1.40;;;;;18.20;99641.00;;;;2080154;28;20452;-66
2021/05/07 01:15:18;;;;;;;2.20;1.60;;;;;18.20;99643.00;;;;2080899;28;20249;-66
2021/05/07 01:16:18;;;;;;;1.95;1.50;;;;;18.20;99642.00;;;;2070062;28;20264;-66
2021/05/07 01:17:18;;;;;;;1.70;1.60;;;;;18.20;99647.00;;;;2080630;28;20660;-66
2021/05/07 01:18:19;;;;;;;1.90;1.70;;;;;18.20;99646.00;;;;2080807;28;20585;-66
2021/05/07 01:19:19;;;;;;;1.80;1.60;;;;;18.20;99644.00;;;;2080753;28;20233;-66
2021/05/07 01:20:30;;;;;;;2.00;1.57;;;;;18.20;99646.00;;;;2080833;28;20230;-66
2021/05/07 01:21:31;;;;;;;1.70;1.60;;;;;18.20;99639.00;;;;2077893;28;20217;-66
2021/05/07 01:22:31;;;;;;;1.70;1.60;;;;;18.20;99648.00;;;;2080564;28;20233;-66
2021/05/07 01:23:32;;;;;;;1.67;1.57;;;;;18.20;99653.00;;;;2080858;28;20213;-66
2021/05/07 01:24:32;;;;;;;2.03;1.83;;;;;18.20;99646.00;;;;2080630;28;20565;-66
2021/05/07 01:25:36;;;;;;;1.57;1.47;;;;;18.20;99650.00;;;;2072001;28;20310;-66
2021/05/07 01:26:42;;;;;;;1.80;1.70;;;;;18.20;99640.00;;;;2072447;28;20229;-66
2021/05/07 01:27:44;;;;;;;1.60;1.50;;;;;18.20;99649.00;;;;2076711;28;20312;-66
2021/05/07 01:28:45;;;;;;;1.92;1.58;;;;;18.20;99659.00;;;;2080682;28;20300;-66
2021/05/07 01:29:46;;;;;;;2.10;1.48;;;;;18.20;99661.00;;;;2080397;28;20209;-66
2021/05/07 01:30:47;;;;;;;1.60;1.50;;;;;18.20;99661.00;;;;2079651;28;20661;-66
2021/05/07 01:31:53;;;;;;;1.70;1.58;;;;;18.20;99658.00;;;;2079012;28;20214;-66
2021/05/07 01:32:54;;;;;;;1.85;1.70;;;;;18.20;99660.00;;;;2080783;28;20214;-66
2021/05/07 01:33:54;;;;;;;1.70;1.53;;;;;18.20;99664.00;;;;2080639;28;20218;-66
2021/05/07 01:34:54;;;;;;;1.83;1.70;;;;;18.20;99658.00;;;;2080732;28;20229;-66
2021/05/07 01:35:55;;;;;;;2.27;1.63;;;;;18.20;99660.00;;;;2080628;28;20260;-66
2021/05/07 01:36:55;;;;;;;1.90;1.70;;;;;18.20;99662.00;;;;2080763;28;20209;-66
2021/05/07 01:37:57;;;;;;;2.10;1.70;;;;;18.20;99658.00;;;;2080772;28;20206;-66
2021/05/07 01:38:57;;;;;;;1.63;1.52;;;;;18.20;99663.00;;;;2080354;28;20246;-66
2021/05/07 01:39:57;;;;;;;1.73;1.63;;;;;18.20;99668.00;;;;2080462;28;20747;-66
2021/05/07 01:40:58;;;;;;;1.80;1.70;;;;;18.20;99663.00;;;;2080816;28;20569;-66
2021/05/07 01:41:58;;;;;;;1.80;1.70;;;;;18.10;99663.00;;;;2080767;28;20550;-66
2021/05/07 01:42:59;;;;;;;2.40;1.80;;;;;18.10;99665.00;;;;2080790;28;20264;-66
2021/05/07 01:43:59;;;;;;;2.27;2.07;;;;;18.10;99669.00;;;;2080505;28;20229;-66
2021/05/07 01:44:59;;;;;;;2.10;1.93;;;;;18.20;99671.00;;;;2080652;28;20214;-66
2021/05/07 01:46:00;;;;;;;1.90;1.80;;;;;18.20;99667.00;;;;2080589;28;20214;-66
2021/05/07 01:47:00;;;;;;;1.93;1.80;;;;;18.10;99676.00;;;;2080784;28;20214;-66
2021/05/07 01:48:01;;;;;;;2.40;2.20;;;;;18.10;99664.00;;;;2080496;28;20592;-66
2021/05/07 01:49:01;;;;;;;2.03;1.83;;;;;18.10;99670.00;;;;2080173;28;20264;-66
2021/05/07 01:50:03;;;;;;;1.70;1.60;;;;;18.10;99673.00;;;;2077451;28;20206;-66
2021/05/07 01:51:07;;;;;;;1.95;1.80;;;;;18.10;99670.00;;;;2080503;28;20952;-66
2021/05/07 01:52:08;;;;;;;1.83;1.73;;;;;18.20;99674.00;;;;2080700;28;20217;-66
2021/05/07 01:53:08;;;;;;;2.03;1.70;;;;;18.10;99674.00;;;;2080637;28;20233;-66
2021/05/07 01:54:09;;;;;;;1.97;1.87;;;;;18.20;99670.00;;;;2080377;28;20576;-66
2021/05/07 01:55:11;;;;;;;1.70;1.60;;;;;18.10;99671.00;;;;2080413;28;20214;-66
2021/05/07 01:56:12;;;;;;;1.90;1.80;;;;;18.20;99672.00;;;;2076779;28;20292;-66
2021/05/07 01:57:12;;;;;;;1.83;1.73;;;;;18.10;99671.00;;;;2070147;28;20216;-66
2021/05/07 01:58:15;;;;;;;2.33;2.13;;;;;18.10;99672.00;;;;2079862;28;20245;-66
2021/05/07 01:59:15;;;;;;;2.47;2.28;;;;;18.10;99670.00;;;;2080104;28;20260;-66
2021/05/07 02:00:20;;;;;;;1.87;1.77;;;;;18.10;99660.00;;;;2080321;28;20214;-66
2021/05/07 02:01:22;;;;;;;1.80;1.70;;;;;18.10;99669.00;;;;2076934;28;20700;-66
2021/05/07 02:02:22;;;;;;;2.30;1.92;;;;;18.10;99671.00;;;;2079730;28;20262;-66
2021/05/07 02:03:23;;;;;;;1.67;1.57;;;;;18.10;99632.00;;;;2080399;28;20248;-66
2021/05/07 02:04:23;;;;;;;2.17;1.97;;;;;18.10;99678.00;;;;2080524;28;20619;-66
2021/05/07 02:05:26;;;;;;;1.87;1.77;;;;;18.10;99669.00;;;;2080460;28;20702;-66
2021/05/07 02:06:26;;;;;;;2.40;2.20;;;;;18.10;99665.00;;;;2080327;28;20210;-66
2021/05/07 02:07:28;;;;;;;2.10;1.97;;;;;18.10;99670.00;;;;2080325;28;20202;-66
2021/05/07 02:08:29;;;;;;;2.13;2.03;;;;;18.20;99682.00;;;;2080246;28;20213;-66
2021/05/07 02:09:29;;;;;;;2.27;2.07;;;;;18.20;99658.00;;;;2079895;28;20213;-67
2021/05/07 02:10:30;;;;;;;1.70;1.60;;;;;18.20;99681.00;;;;2080310;28;20768;-66
2021/05/07 02:11:30;;;;;;;2.03;1.90;;;;;18.20;99682.00;;;;2080565;28;20264;-66
2021/05/07 02:12:30;;;;;;;1.93;1.83;;;;;18.10;99679.00;;;;2080472;28;20249;-66
2021/05/07 02:13:31;;;;;;;2.30;2.10;;;;;18.20;99678.00;;;;2080578;28;20233;-66
2021/05/07 02:14:31;;;;;;;2.30;2.10;;;;;18.20;99675.00;;;;2080435;28;20259;-66
2021/05/07 02:15:32;;;;;;;2.10;1.90;;;;;18.20;99689.00;;;;2080347;28;20252;-66
2021/05/07 02:16:32;;;;;;;2.00;1.90;;;;;18.10;99682.00;;;;2080001;28;20210;-66
2021/05/07 02:17:32;;;;;;;2.07;1.87;;;;;18.20;99676.00;;;;2079838;28;20212;-66
2021/05/07 02:18:33;;;;;;;3.20;2.10;;;;;18.10;99686.00;;;;2080313;28;20213;-66
2021/05/07 02:19:33;;;;;;;2.03;1.93;;;;;18.10;99697.00;;;;2080027;28;20222;-66
2021/05/07 02:20:34;;;;;;;2.00;1.80;;;;;18.10;99687.00;;;;2080356;28;20225;-66
2021/05/07 02:21:35;;;;;;;1.87;1.77;;;;;18.10;99693.00;;;;2080430;28;20218;-66
2021/05/07 02:22:35;;;;;;;1.87;1.77;;;;;18.10;99690.00;;;;2080257;28;20564;-66
2021/05/07 02:23:35;;;;;;;2.57;2.37;;;;;18.10;99692.00;;;;2079378;28;20519;-66
2021/05/07 02:24:36;;;;;;;2.10;1.90;;;;;18.20;99691.00;;;;2079706;28;20234;-66
2021/05/07 02:25:36;;;;;;;1.80;1.70;;;;;18.10;99695.00;;;;2079247;28;20217;-66
2021/05/07 02:26:36;;;;;;;2.10;1.90;;;;;18.10;99697.00;;;;2079584;28;20709;-66
2021/05/07 02:27:37;;;;;;;2.23;2.13;;;;;18.20;99701.00;;;;2080402;28;20297;-67
2021/05/07 02:28:37;;;;;;;1.90;1.77;;;;;18.20;99697.00;;;;2080302;28;20210;-66
2021/05/07 02:29:38;;;;;;;1.93;1.83;;;;;18.20;99704.00;;;;2080081;28;20295;-66
2021/05/07 02:30:38;;;;;;;2.13;1.97;;;;;18.10;99700.00;;;;2080206;28;20286;-66
2021/05/07 02:31:38;;;;;;;2.03;1.83;;;;;18.10;99695.00;;;;2077981;28;20218;-66
2021/05/07 02:32:39;;;;;;;1.70;1.60;;;;;18.20;99704.00;;;;2080150;28;20213;-66
2021/05/07 02:33:39;;;;;;;2.07;1.87;;;;;18.20;99693.00;;;;2080358;28;21420;-66
2021/05/07 02:34:39;;;;;;;1.97;1.80;;;;;18.10;99704.00;;;;2080101;28;20222;-66
2021/05/07 02:35:40;;;;;;;2.30;2.10;;;;;18.10;99695.00;;;;2080091;28;20221;-66
2021/05/07 02:36:40;;;;;;;2.30;2.10;;;;;18.10;99699.00;;;;2080094;28;20307;-66
2021/05/07 02:37:41;;;;;;;2.10;2.00;;;;;18.10;99702.00;;;;2078603;28;20217;-66
2021/05/07 02:38:41;;;;;;;1.80;1.70;;;;;18.10;99707.00;;;;2075884;28;20218;-66
2021/05/07 02:39:42;;;;;;;2.13;1.93;;;;;18.10;99706.00;;;;2079403;28;20577;-66
2021/05/07 02:40:42;;;;;;;1.83;1.73;;;;;18.10;99707.00;;;;2079892;28;20476;-66
2021/05/07 02:41:43;;;;;;;2.30;2.07;;;;;18.10;99714.00;;;;2079694;28;20237;-66
2021/05/07 02:42:43;;;;;;;2.20;2.10;;;;;18.10;99709.00;;;;2066080;28;20654;-66
2021/05/07 02:43:44;;;;;;;2.13;2.03;;;;;18.10;99709.00;;;;2078980;28;21074;-66
2021/05/07 02:44:44;;;;;;;2.00;1.87;;;;;18.10;99714.00;;;;2080041;28;20220;-66
2021/05/07 02:45:44;;;;;;;2.00;1.90;;;;;18.10;99713.00;;;;2079458;28;20234;-66
2021/05/07 02:46:45;;;;;;;2.27;2.07;;;;;18.10;99717.00;;;;2080244;28;20210;-67
2021/05/07 02:47:45;;;;;;;2.03;1.93;;;;;18.10;99714.00;;;;2080149;28;20263;-66
2021/05/07 02:48:45;;;;;;;2.27;2.07;;;;;18.10;99720.00;;;;2080127;28;20214;-66
2021/05/07 02:49:47;;;;;;;2.63;2.30;;;;;18.10;99712.00;;;;2079793;28;20218;-66
2021/05/07 02:50:47;;;;;;;2.03;1.90;;;;;18.10;99715.00;;;;2079761;28;20225;-66
2021/05/07 02:51:48;;;;;;;3.50;2.30;;;;;18.10;99715.00;;;;2079409;28;20221;-66
2021/05/07 02:52:48;;;;;;;2.60;2.20;;;;;18.10;99714.00;;;;2080183;28;20225;-66
2021/05/07 02:53:48;;;;;;;2.23;2.10;;;;;18.10;99714.00;;;;2080164;28;20303;-66
2021/05/07 02:54:49;;;;;;;2.17;2.07;;;;;18.10;99715.00;;;;2080211;28;20218;-66
2021/05/07 02:55:49;;;;;;;2.00;1.90;;;;;18.10;99710.00;;;;2080081;28;20360;-66
2021/05/07 02:56:49;;;;;;;1.73;1.63;;;;;18.10;99709.00;;;;2080007;28;20210;-66
2021/05/07 02:57:50;;;;;;;1.93;1.83;;;;;18.10;99709.00;;;;2079911;28;20214;-66
2021/05/07 02:58:50;;;;;;;2.37;2.17;;;;;18.10;99714.00;;;;2080068;28;20228;-66
2021/05/07 02:59:50;;;;;;;1.90;1.80;;;;;18.10;99723.00;;;;2079087;28;20214;-66
2021/05/07 03:00:51;;;;;;;2.40;2.20;;;;;18.10;99720.00;;;;2078196;28;20292;-66
2021/05/07 03:01:51;;;;;;;2.30;2.10;;;;;18.10;99718.00;;;;2076609;28;20225;-66
2021/05/07 03:02:52;;;;;;;2.47;2.27;;;;;18.10;99725.00;;;;2079488;28;20230;-66
2021/05/07 03:03:52;;;;;;;2.40;2.20;;;;;18.10;99726.00;;;;2079587;28;20627;-66
2021/05/07 03:04:52;;;;;;;2.03;1.93;;;;;18.10;99725.00;;;;2079403;28;20730;-66
2021/05/07 03:05:53;;;;;;;2.30;2.10;;;;;18.10;99727.00;;;;2079494;28;20226;-66
2021/05/07 03:06:53;;;;;;;2.60;2.10;;;;;18.10;99731.00;;;;2079635;28;20613;-66
2021/05/07 03:07:53;;;;;;;2.07;1.90;;;;;18.10;99729.00;;;;2080029;28;20630;-66
2021/05/07 03:08:54;;;;;;;2.10;1.90;;;;;18.10;99731.00;;;;2080170;28;20593;-66
2021/05/07 03:09:54;;;;;;;2.43;2.30;;;;;18.10;99737.00;;;;2079736;28;20226;-66
2021/05/07 03:10:55;;;;;;;2.00;1.90;;;;;18.10;99737.00;;;;2079881;28;20225;-66
2021/05/07 03:11:58;;;;;;;2.40;2.20;;;;;18.10;99733.00;;;;2079971;28;20218;-66
2021/05/07 03:12:58;;;;;;;2.13;1.92;;;;;18.10;99736.00;;;;2079552;28;20213;-66
2021/05/07 03:13:59;;;;;;;2.23;2.03;;;;;18.10;99735.00;;;;2079978;28;20214;-67
2021/05/07 03:14:59;;;;;;;1.90;1.73;;;;;18.10;99735.00;;;;2079572;28;20300;-66
2021/05/07 03:15:59;;;;;;;2.00;1.80;;;;;18.10;99738.00;;;;2074985;28;20220;-66
2021/05/07 03:17:00;;;;;;;1.97;1.77;;;;;18.10;99739.00;;;;2079951;28;20214;-66
2021/05/07 03:18:00;;;;;;;2.77;2.40;;;;;18.10;99735.00;;;;2079569;28;20285;-66
2021/05/07 03:19:01;;;;;;;2.40;2.20;;;;;18.10;99739.00;;;;2079899;28;20218;-66
2021/05/07 03:20:02;;;;;;;2.15;1.90;;;;;18.10;99744.00;;;;2079014;28;20222;-66
2021/05/07 03:21:03;;;;;;;2.05;1.95;;;;;18.10;99741.00;;;;2078132;28;20222;-66
2021/05/07 03:22:03;;;;;;;2.30;2.10;;;;;18.10;99744.00;;;;2078967;28;20581;-66
2021/05/07 03:23:03;;;;;;;1.80;1.70;;;;;18.10;99730.00;;;;2079297;28;20288;-66
2021/05/07 03:24:07;;;;;;;1.87;1.77;;;;;18.10;99740.00;;;;2078013;28;20250;-66
2021/05/07 03:25:08;;;;;;;1.90;1.80;;;;;18.10;99738.00;;;;2078383;28;20237;-66
2021/05/07 03:26:08;;;;;;;2.40;2.17;;;;;18.10;99741.00;;;;2079842;28;20716;-66
2021/05/07 03:27:09;;;;;;;2.23;2.03;;;;;18.10;99742.00;;;;2079953;28;20457;-66
2021/05/07 03:28:09;;;;;;;1.97;1.87;;;;;18.10;99750.00;;;;2079741;28;20218;-66
2021/05/07 03:29:09;;;;;;;2.27;2.07;;;;;18.10;99752.00;;;;2079437;28;20218;-66
2021/05/07 03:30:12;;;;;;;2.40;2.20;;;;;18.10;99751.00;;;;2079776;28;20298;-66
2021/05/07 03:31:13;;;;;;;1.70;1.60;;;;;18.10;99756.00;;;;2078408;28;20288;-66
2021/05/07 03:32:13;;;;;;;3.70;2.10;;;;;18.10;99753.00;;;;2079897;28;20206;-66
2021/05/07 03:33:14;;;;;;;2.03;1.93;;;;;18.10;99757.00;;;;2079833;28;20206;-66
2021/05/07 03:34:14;;;;;;;2.50;2.30;;;;;18.10;99759.00;;;;2075891;28;20206;-66
2021/05/07 03:35:14;;;;;;;2.80;2.50;;;;;18.10;99757.00;;;;2079749;28;20237;-66
2021/05/07 03:36:15;;;;;;;3.03;2.30;;;;;18.10;99763.00;;;;2079800;28;20206;-66
2021/05/07 03:37:16;;;;;;;2.80;2.33;;;;;18.10;99754.00;;;;2078690;28;20213;-66
2021/05/07 03:38:16;;;;;;;2.30;2.10;;;;;18.10;99753.00;;;;2079472;28;20297;-67
2021/05/07 03:39:17;;;;;;;2.23;2.03;;;;;18.10;99762.00;;;;2078939;28;20696;-66
2021/05/07 03:40:17;;;;;;;2.03;1.90;;;;;18.10;99762.00;;;;2071004;28;20588;-66
2021/05/07 03:41:17;;;;;;;2.40;2.20;;;;;18.10;99763.00;;;;2079416;28;20720;-66
2021/05/07 03:42:18;;;;;;;2.00;1.80;;;;;18.10;99753.00;;;;2079408;28;20240;-66
2021/05/07 03:43:18;;;;;;;2.23;2.07;;;;;18.10;99758.00;;;;2079206;28;20214;-66
2021/05/07 03:44:18;;;;;;;1.80;1.70;;;;;18.10;99761.00;;;;2079578;28;20241;-67
2021/05/07 03:45:19;;;;;;;2.10;1.90;;;;;18.10;99762.00;;;;2079552;28;20236;-66
2021/05/07 03:46:20;;;;;;;2.50;1.93;;;;;18.10;99771.00;;;;2079651;28;20217;-66
2021/05/07 03:47:20;;;;;;;2.20;2.10;;;;;18.10;99757.00;;;;2079932;28;20496;-66
2021/05/07 03:48:21;;;;;;;2.10;1.90;;;;;18.10;99765.00;;;;2079856;28;20206;-66
2021/05/07 03:49:21;;;;;;;2.30;2.10;;;;;18.10;99758.00;;;;2087201;28;20675;-66
2021/05/07 03:50:22;;;;;;;2.37;2.17;;;;;18.10;99761.00;;;;2087109;28;20491;-66
2021/05/07 03:51:23;;;;;;;2.20;2.00;;;;;18.10;99766.00;;;;2079525;28;20217;-66
2021/05/07 03:52:23;;;;;;;2.55;2.33;;;;;18.10;99765.00;;;;2079773;28;20240;-66
2021/05/07 03:53:23;;;;;;;2.30;2.10;;;;;18.10;99758.00;;;;2079610;28;20227;-66
2021/05/07 03:54:24;;;;;;;2.50;2.30;;;;;18.10;99772.00;;;;2079688;28;20209;-66
2021/05/07 03:55:24;;;;;;;2.87;2.67;;;;;18.10;99767.00;;;;2079755;28;20283;-66
2021/05/07 03:56:24;;;;;;;2.27;2.07;;;;;18.10;99771.00;;;;2079708;28;20276;-66
2021/05/07 03:57:25;;;;;;;2.43;2.23;;;;;18.10;99770.00;;;;2079684;28;20229;-66
2021/05/07 03:58:26;;;;;;;2.05;1.85;;;;;18.10;99758.00;;;;2079569;28;20226;-66
2021/05/07 03:59:26;;;;;;;2.30;2.10;;;;;18.10;99771.00;;;;2079039;28;20624;-67
2021/05/07 04:00:26;;;;;;;2.33;2.07;;;;;18.10;99774.00;;;;2079293;28;20213;-68
2021/05/07 04:01:27;;;;;;;2.40;2.20;;;;;18.10;99766.00;;;;2078339;28;20214;-67
2021/05/07 04:02:28;;;;;;;2.37;2.17;;;;;18.10;99776.00;;;;2079586;28;20210;-68
2021/05/07 04:03:28;;;;;;;2.23;2.03;;;;;18.10;99770.00;;;;2079559;28;20245;-67
2021/05/07 04:04:31;;;;;;;2.30;2.10;;;;;18.10;99779.00;;;;2079590;28;20535;-67
2021/05/07 04:05:31;;;;;;;2.38;2.17;;;;;18.10;99774.00;;;;2079530;28;20218;-67
2021/05/07 04:06:31;;;;;;;2.17;1.90;;;;;18.00;99777.00;;;;2078589;28;20213;-67
2021/05/07 04:07:32;;;;;;;2.10;1.93;;;;;18.10;99776.00;;;;2079657;28;20216;-66
2021/05/07 04:08:35;;;;;;;2.40;2.20;;;;;18.00;99786.00;;;;2075680;28;20217;-66
2021/05/07 04:09:39;;;;;;;2.40;2.20;;;;;18.10;99786.00;;;;2079531;28;20214;-66
2021/05/07 04:10:42;;;;;;;1.80;1.70;;;;;18.10;99785.00;;;;2079065;28;20209;-66
2021/05/07 04:11:54;;;;;;;2.30;2.10;;;;;18.10;99789.00;;;;2079019;28;20289;-66
2021/05/07 04:13:55;;;;;;;2.40;2.20;;;;;18.10;99784.00;;;;2079558;28;20224;-67
2021/05/07 04:14:55;;;;;;;2.70;2.50;;;;;18.10;99788.00;;;;2079537;28;20233;-67
2021/05/07 04:15:56;;;;;;;2.30;2.10;;;;;18.10;99785.00;;;;2079664;28;20217;-66
2021/05/07 04:16:56;;;;;;;2.50;2.30;;;;;18.10;99784.00;;;;2079390;28;20222;-66
2021/05/07 04:17:57;;;;;;;2.60;2.40;;;;;18.00;99782.00;;;;2079589;28;20476;-66
2021/05/07 04:18:57;;;;;;;2.13;1.93;;;;;18.00;99788.00;;;;2077656;28;20218;-66
2021/05/07 04:19:57;;;;;;;2.67;2.47;;;;;18.00;99780.00;;;;2078767;28;20287;-66
2021/05/07 04:20:58;;;;;;;2.27;2.07;;;;;18.00;99788.00;;;;2079035;28;20245;-66
2021/05/07 04:21:58;;;;;;;2.53;2.33;;;;;18.00;99790.00;;;;2079445;28;20221;-66
2021/05/07 04:22:58;;;;;;;2.40;2.20;;;;;18.00;99791.00;;;;2079627;28;20222;-66
2021/05/07 04:23:59;;;;;;;1.93;1.83;;;;;18.00;99792.00;;;;2079572;28;20214;-66
2021/05/07 04:24:59;;;;;;;2.60;2.40;;;;;18.00;99798.00;;;;2079387;28;20313;-66
2021/05/07 04:26:00;;;;;;;2.50;2.30;;;;;18.10;99803.00;;;;2079622;28;20214;-66
2021/05/07 04:27:00;;;;;;;2.28;2.17;;;;;18.00;99807.00;;;;2078209;28;20210;-66
2021/05/07 04:28:01;;;;;;;2.30;2.10;;;;;18.00;99808.00;;;;2079023;28;20263;-66
2021/05/07 04:29:03;;;;;;;2.43;2.23;;;;;18.00;99810.00;;;;2079495;28;20218;-66
2021/05/07 04:30:04;;;;;;;2.55;2.35;;;;;18.00;99802.00;;;;2079386;28;20304;-66
2021/05/07 04:31:05;;;;;;;2.33;2.20;;;;;18.00;99803.00;;;;2078815;28;20584;-66
2021/05/07 04:32:05;;;;;;;4.43;2.50;;;;;18.00;99803.00;;;;2079528;28;20214;-66
2021/05/07 04:33:05;;;;;;;2.57;2.27;;;;;18.00;99804.00;;;;2080272;28;20236;-66
2021/05/07 04:34:06;;;;;;;2.60;2.40;;;;;18.00;99804.00;;;;2081133;28;20214;-66
2021/05/07 04:35:08;;;;;;;2.30;2.10;;;;;18.00;99798.00;;;;2076972;28;20221;-67
2021/05/07 04:36:08;;;;;;;2.20;2.00;;;;;18.00;99810.00;;;;2080340;28;20225;-66
2021/05/07 04:37:09;;;;;;;2.30;2.10;;;;;18.00;99807.00;;;;2080489;28;20224;-66
2021/05/07 04:38:09;;;;;;;2.40;2.20;;;;;18.00;99812.00;;;;2078164;28;20214;-66
2021/05/07 04:39:09;;;;;;;3.00;2.70;;;;;18.00;99820.00;;;;2081085;28;20268;-66
2021/05/07 04:40:10;;;;;;;4.00;2.00;;;;;18.00;99812.00;;;;2080791;28;20241;-66
2021/05/07 04:41:11;;;;;;;2.50;2.30;;;;;18.00;99813.00;;;;2081120;28;20214;-66
2021/05/07 04:42:11;;;;;;;2.60;2.40;;;;;18.00;99811.00;;;;2078446;28;20576;-66
2021/05/07 04:43:12;;;;;;;2.50;2.30;;;;;18.00;99820.00;;;;2081077;28;20572;-66
2021/05/07 04:44:12;;;;;;;2.53;2.33;;;;;18.00;99826.00;;;;2077898;28;20198;-66
2021/05/07 04:45:13;;;;;;;2.30;2.10;;;;;18.00;99813.00;;;;2080238;28;20234;-66
2021/05/07 04:46:13;;;;;;;2.47;2.27;;;;;18.00;99827.00;;;;2077345;28;20222;-66
2021/05/07 04:47:13;;;;;;;2.67;2.47;;;;;18.10;99819.00;;;;2080851;28;20213;-66
2021/05/07 04:48:14;;;;;;;2.80;2.60;;;;;18.10;99818.00;;;;2079806;28;20225;-66
2021/05/07 04:49:14;;;;;;;2.10;2.00;;;;;18.10;99822.00;;;;2079585;28;21042;-66
2021/05/07 04:50:15;;;;;;;2.37;2.17;;;;;18.00;99827.00;;;;2080354;28;20261;-66
2021/05/07 04:51:15;;;;;;;2.43;2.23;;;;;18.00;99825.00;;;;2070402;28;20281;-67
2021/05/07 04:52:15;;;;;;;2.50;2.30;;;;;18.00;99825.00;;;;2080424;28;20210;-66
2021/05/07 04:53:16;;;;;;;2.10;1.90;;;;;18.10;99823.00;;;;2081108;28;20719;-66
2021/05/07 04:54:16;;;;;;;2.50;2.30;;;;;18.10;99829.00;;;;2080985;28;20689;-66
2021/05/07 04:55:16;;;;;;;2.40;2.20;;;;;18.10;99827.00;;;;2080274;28;20225;-66
2021/05/07 04:56:17;;;;;;;2.60;2.40;;;;;18.10;99826.00;;;;2080419;28;20218;-67
2021/05/07 04:57:17;;;;;;;2.60;2.40;;;;;18.10;99831.00;;;;2081030;28;20213;-66
2021/05/07 04:58:17;;;;;;;2.40;2.30;;;;;18.10;99841.00;;;;2080265;28;20221;-66
2021/05/07 04:59:18;;;;;;;2.47;2.27;;;;;18.10;99833.00;;;;2080223;28;20224;-66
2021/05/07 05:00:18;;;;;;;2.37;2.17;;;;;18.10;99826.00;;;;2080709;28;20331;-66
2021/05/07 05:01:19;;;;;;;2.37;2.17;;;;;18.00;99826.00;;;;2080548;28;20214;-67
2021/05/07 05:02:21;;;;;;;2.80;2.33;;;;;18.10;99826.00;;;;2080688;28;20217;-67
2021/05/07 05:03:21;;;;;;;2.67;2.47;;;;;18.10;99827.00;;;;2080796;28;20288;-67
2021/05/07 05:04:21;;;;;;;2.50;2.30;;;;;18.10;99829.00;;;;2080873;28;20558;-67
2021/05/07 05:05:22;;;;;;;2.47;2.27;;;;;18.10;99830.00;;;;2080751;28;20723;-67
2021/05/07 05:06:23;;;;;;;2.45;2.28;;;;;18.10;99835.00;;;;2080739;28;20217;-67